Time;durP1;ratioP1;P1;durP2;ratioP2;P2;SDS_P1;SDS_P2;PMS_P1;PMS_P2;Temp;Humidity;BMP_temperature;BMP_pressure;BME280_temperature;BME280_humidity;BME280_pressure;Samples;Min_cycle;Max_cycle;Signal;HPM_P1;HPM_P2
2022/10/09 00:00:59;;;;;;;26.83;10.55;;;;;;;4.52;100.00;102272.25;1970658;28;20037;-72
2022/10/09 00:01:57;;;;;;;23.35;10.32;;;;;;;4.49;100.00;102269.63;1969935;28;20069;-71
2022/10/09 00:02:54;;;;;;;25.55;10.30;;;;;;;4.45;100.00;102279.06;1970020;28;20510;-72
2022/10/09 00:03:55;;;;;;;19.13;10.02;;;;;;;4.43;100.00;102277.34;1970510;28;20068;-72
2022/10/09 00:04:52;;;;;;;23.98;9.68;;;;;;;4.40;100.00;102277.31;1970593;28;20458;-73
2022/10/09 00:05:50;;;;;;;29.55;11.13;;;;;;;4.38;100.00;102278.16;1969780;28;20038;-71
2022/10/09 00:06:47;;;;;;;25.77;10.82;;;;;;;4.49;100.00;102277.38;1970115;28;20065;-72
2022/10/09 00:07:44;;;;;;;30.05;10.93;;;;;;;4.50;100.00;102274.81;1970436;28;20046;-71
2022/10/09 00:08:42;;;;;;;22.80;10.55;;;;;;;4.47;100.00;102273.91;1970488;28;20057;-72
2022/10/09 00:09:39;;;;;;;29.58;10.65;;;;;;;4.43;100.00;102279.91;1970554;28;20452;-72
2022/10/09 00:10:42;;;;;;;27.17;10.93;;;;;;;4.42;100.00;102271.31;1969779;28;20177;-71
2022/10/09 00:11:39;;;;;;;21.42;10.35;;;;;;;4.42;100.00;102278.19;1969934;28;20037;-71
2022/10/09 00:12:37;;;;;;;24.67;10.10;;;;;;;4.42;100.00;102275.63;1977712;28;20083;-72
2022/10/09 00:13:35;;;;;;;26.77;11.38;;;;;;;4.43;100.00;102285.09;1971256;28;20064;-72
2022/10/09 00:14:32;;;;;;;27.02;10.77;;;;;;;4.41;100.00;102274.72;1970488;28;20123;-72
2022/10/09 00:15:30;;;;;;;28.58;12.15;;;;;;;4.39;100.00;102284.22;1970555;28;20041;-71
2022/10/09 00:16:28;;;;;;;26.67;10.88;;;;;;;4.38;100.00;102280.75;1970558;28;20056;-71
2022/10/09 00:17:25;;;;;;;20.05;10.57;;;;;;;4.36;100.00;102274.72;1969769;28;20125;-72
2022/10/09 00:18:23;;;;;;;26.20;10.98;;;;;;;4.35;100.00;102280.72;1969970;28;20030;-71
2022/10/09 00:19:20;;;;;;;25.60;11.10;;;;;;;4.32;100.00;102275.56;1968171;28;20046;-71
2022/10/09 00:20:18;;;;;;;18.23;10.77;;;;;;;4.31;100.00;102284.16;1969713;28;20121;-72
2022/10/09 00:21:25;;;;;;;19.80;10.30;;;;;;;4.30;100.00;102279.84;1970026;28;20079;-72
2022/10/09 00:22:22;;;;;;;24.35;10.80;;;;;;;4.28;100.00;102278.09;1970466;28;20040;-72
2022/10/09 00:23:19;;;;;;;27.60;11.43;;;;;;;4.26;100.00;102280.69;1970402;28;20121;-72
2022/10/09 00:24:17;;;;;;;24.77;10.73;;;;;;;4.27;100.00;102282.41;1970449;28;20069;-71
2022/10/09 00:25:14;;;;;;;28.77;11.10;;;;;;;4.26;100.00;102280.69;1970398;28;20147;-71
2022/10/09 00:26:12;;;;;;;19.50;10.32;;;;;;;4.24;100.00;102282.38;1970437;28;20045;-72
2022/10/09 00:27:10;;;;;;;32.22;10.52;;;;;;;4.22;100.00;102281.50;1970491;28;20057;-72
2022/10/09 00:28:07;;;;;;;24.60;10.50;;;;;;;4.18;100.00;102277.16;1970410;28;20436;-72
2022/10/09 00:29:04;;;;;;;22.67;10.50;;;;;;;4.17;100.00;102278.03;1970395;28;20156;-72
2022/10/09 00:30:03;;;;;;;26.75;10.13;;;;;;;4.16;100.00;102276.28;1970450;28;20040;-73
2022/10/09 00:31:05;;;;;;;23.58;10.50;;;;;;;4.15;100.00;102277.16;1970310;28;20489;-72
2022/10/09 00:32:02;;;;;;;21.73;10.18;;;;;;;4.13;100.00;102279.72;1970479;28;20041;-72
2022/10/09 00:32:59;;;;;;;28.73;10.95;;;;;;;4.15;100.00;102279.72;1970344;28;20074;-72
2022/10/09 00:33:57;;;;;;;22.90;9.93;;;;;;;4.12;100.00;102286.63;1970414;28;20389;-72
2022/10/09 00:34:54;;;;;;;21.60;9.48;;;;;;;4.10;100.00;102282.25;1970287;28;20493;-72
2022/10/09 00:35:51;;;;;;;17.58;9.55;;;;;;;4.07;100.00;102279.69;1969718;28;20048;-72
2022/10/09 00:36:49;;;;;;;23.40;10.00;;;;;;;4.04;100.00;102274.47;1969774;28;20172;-71
2022/10/09 00:37:47;;;;;;;21.35;9.50;;;;;;;4.02;100.00;102279.63;1975984;28;20466;-71
2022/10/09 00:38:45;;;;;;;25.13;10.30;;;;;;;3.99;100.00;102271.84;1977363;28;20556;-72
2022/10/09 00:39:43;;;;;;;24.23;10.38;;;;;;;4.02;100.00;102271.88;1970995;28;20131;-73
2022/10/09 00:40:41;;;;;;;24.13;9.75;;;;;;;4.06;100.00;102263.31;1970215;28;20062;-73
2022/10/09 00:41:39;;;;;;;22.10;10.50;;;;;;;4.06;100.00;102268.47;1970565;28;20491;-71
2022/10/09 00:42:36;;;;;;;21.40;10.43;;;;;;;4.05;100.00;102271.03;1970349;28;20060;-71
2022/10/09 00:43:46;;;;;;;18.77;10.32;;;;;;;4.04;100.00;102270.16;1970125;28;20045;-72
2022/10/09 00:44:58;;;;;;;26.67;10.23;;;;;;;4.03;100.00;102273.59;1970287;28;20072;-72
2022/10/09 00:45:56;;;;;;;26.10;9.80;;;;;;;4.03;100.00;102270.19;1970314;28;20124;-71
2022/10/09 00:46:53;;;;;;;21.50;10.43;;;;;;;4.00;100.00;102271.00;1970235;28;20083;-71
2022/10/09 00:48:02;;;;;;;24.83;10.63;;;;;;;3.97;100.00;102263.25;1969519;28;20072;-71
2022/10/09 00:49:24;;;;;;;24.13;10.20;;;;;;;3.98;100.00;102265.81;1969461;28;20386;-72
2022/10/09 00:50:40;;;;;;;29.00;10.60;;;;;;;3.95;100.00;102267.50;1970268;28;20056;-71
2022/10/09 00:51:41;;;;;;;26.52;10.10;;;;;;;3.90;100.00;102270.06;1970128;28;20048;-71
2022/10/09 00:52:39;;;;;;;24.90;10.23;;;;;;;3.91;100.00;102268.34;1970278;28;20400;-72
2022/10/09 00:53:37;;;;;;;29.95;10.93;;;;;;;3.91;100.00;102271.81;1970093;28;20096;-71
2022/10/09 00:54:39;;;;;;;27.25;11.20;;;;;;;3.89;100.00;102275.19;1970325;28;20051;-71
2022/10/09 00:55:38;;;;;;;24.30;10.90;;;;;;;3.84;100.00;102278.59;1970211;28;20043;-71
2022/10/09 00:56:36;;;;;;;24.20;11.30;;;;;;;3.83;100.00;102271.72;1970216;28;20040;-71
2022/10/09 00:57:36;;;;;;;28.08;12.05;;;;;;;3.85;100.00;102280.38;1970194;28;20508;-71
2022/10/09 00:58:33;;;;;;;25.08;10.73;;;;;;;3.85;100.00;102275.19;1970182;28;20102;-71
2022/10/09 00:59:31;;;;;;;26.20;11.20;;;;;;;3.83;100.00;102271.72;1970118;28;20096;-70
2022/10/09 01:00:29;;;;;;;23.88;11.60;;;;;;;3.82;100.00;102275.16;1969507;28;20037;-71
2022/10/09 01:01:26;;;;;;;30.08;12.13;;;;;;;3.80;100.00;102266.53;1969562;28;20582;-72
2022/10/09 01:02:24;;;;;;;29.50;12.10;;;;;;;3.78;100.00;102273.41;1970183;28;20557;-71
2022/10/09 01:03:21;;;;;;;26.85;11.52;;;;;;;3.80;100.00;102273.44;1970186;28;20055;-70
2022/10/09 01:04:18;;;;;;;30.38;11.95;;;;;;;3.77;100.00;102274.25;1970154;28;20103;-71
2022/10/09 01:05:16;;;;;;;26.77;11.73;;;;;;;3.77;100.00;102275.97;1970099;28;20102;-71
2022/10/09 01:06:25;;;;;;;34.78;12.32;;;;;;;3.80;100.00;102271.69;1970177;28;20421;-71
2022/10/09 01:07:52;;;;;;;25.65;11.38;;;;;;;3.83;100.00;102265.72;1970155;28;20134;-71
2022/10/09 01:09:37;;;;;;;29.77;11.05;;;;;;;3.84;100.00;102262.28;1969981;28;20169;-71
2022/10/09 01:10:59;;;;;;;20.08;9.77;;;;;;;3.83;100.00;102265.72;1965602;28;20119;-72
2022/10/09 01:12:28;;;;;;;22.05;10.13;;;;;;;3.78;100.00;102273.41;1969702;28;20176;-71
2022/10/09 01:13:51;;;;;;;20.65;9.70;;;;;;;3.73;100.00;102260.44;1970109;28;20457;-71
2022/10/09 01:15:29;;;;;;;24.92;11.07;;;;;;;3.76;100.00;102262.19;1970246;28;20036;-72
2022/10/09 01:16:34;;;;;;;24.58;10.85;;;;;;;3.70;100.00;102264.72;1969993;28;20055;-70
2022/10/09 01:18:16;;;;;;;22.83;10.85;;;;;;;3.71;100.00;102266.44;1970106;28;20043;-73
2022/10/09 01:19:50;;;;;;;22.33;9.90;;;;;;;3.66;100.00;102266.41;1967360;28;20052;-71
2022/10/09 01:20:58;;;;;;;23.20;9.48;;;;;;;3.61;100.00;102265.50;1969988;28;20026;-71
2022/10/09 01:22:31;;;;;;;24.67;10.57;;;;;;;3.56;100.00;102267.19;1969966;28;20038;-72
2022/10/09 01:24:01;;;;;;;20.65;8.93;;;;;;;3.50;100.00;102270.56;1969981;28;20057;-72
2022/10/09 01:25:23;;;;;;;27.27;8.95;;;;;;;3.47;100.00;102267.94;1969978;28;20042;-71
2022/10/09 01:26:58;;;;;;;22.75;9.43;;;;;;;3.54;100.00;102272.31;1969963;28;20041;-71
2022/10/09 01:27:57;;;;;;;25.27;9.57;;;;;;;3.52;100.00;102270.59;1970001;28;20040;-73
2022/10/09 01:29:06;;;;;;;25.75;9.23;;;;;;;3.51;100.00;102269.69;1969958;28;20037;-71
2022/10/09 01:30:10;;;;;;;19.63;9.27;;;;;;;3.51;100.00;102269.69;1970009;28;20568;-71
2022/10/09 01:31:10;;;;;;;23.83;8.95;;;;;;;3.50;100.00;102267.97;1969832;28;20176;-72
2022/10/09 01:32:14;;;;;;;22.15;9.88;;;;;;;3.48;100.00;102272.25;1970028;28;20043;-72
2022/10/09 01:33:15;;;;;;;22.13;10.05;;;;;;;3.50;100.00;102265.41;1969150;28;20050;-72
2022/10/09 01:34:15;;;;;;;23.58;10.30;;;;;;;3.47;100.00;102265.34;1969417;28;20037;-71
2022/10/09 01:35:14;;;;;;;20.42;9.65;;;;;;;3.46;100.00;102263.63;1969861;28;20092;-71
2022/10/09 01:36:15;;;;;;;22.90;10.00;;;;;;;3.46;100.00;102261.91;1969235;28;20048;-71
2022/10/09 01:37:15;;;;;;;20.80;9.73;;;;;;;3.45;100.00;102265.34;1969270;28;20346;-71
2022/10/09 01:38:15;;;;;;;20.15;9.70;;;;;;;3.45;100.00;102260.19;1969973;28;20072;-72
2022/10/09 01:39:19;;;;;;;26.02;9.85;;;;;;;3.45;100.00;102260.19;1969817;28;20059;-72
2022/10/09 01:40:18;;;;;;;23.95;9.60;;;;;;;3.46;100.00;102255.91;1969240;28;20063;-72
2022/10/09 01:41:17;;;;;;;26.58;9.73;;;;;;;3.52;100.00;102253.34;1969231;28;20366;-70
2022/10/09 01:42:17;;;;;;;25.42;10.07;;;;;;;3.53;100.00;102251.66;1976586;28;20076;-70
2022/10/09 01:43:15;;;;;;;22.45;10.07;;;;;;;3.54;100.00;102249.09;1970139;28;20060;-70
2022/10/09 01:44:25;;;;;;;25.58;10.13;;;;;;;3.55;100.00;102255.09;1969764;28;20076;-71
2022/10/09 01:45:22;;;;;;;25.57;9.57;;;;;;;3.54;100.00;102245.63;1969838;28;20037;-71
2022/10/09 01:46:31;;;;;;;25.67;10.27;;;;;;;3.54;100.00;102254.25;1970100;28;20302;-72
2022/10/09 01:47:28;;;;;;;20.77;9.93;;;;;;;3.53;100.00;102246.50;1969726;28;20116;-70
2022/10/09 01:48:27;;;;;;;21.60;10.13;;;;;;;3.51;100.00;102245.59;1969911;28;20128;-71
2022/10/09 01:49:35;;;;;;;21.40;10.95;;;;;;;3.50;100.00;102246.44;1967597;28;20050;-70
2022/10/09 01:50:42;;;;;;;29.63;10.48;;;;;;;3.47;100.00;102253.34;1969849;28;20101;-71
2022/10/09 01:52:13;;;;;;;25.67;10.30;;;;;;;3.41;100.00;102242.94;1969145;28;20124;-72
2022/10/09 01:53:20;;;;;;;25.90;10.13;;;;;;;3.39;100.00;102243.78;1969596;28;20056;-70
2022/10/09 01:54:36;;;;;;;19.33;9.80;;;;;;;3.38;100.00;102242.91;1969851;28;20041;-71
2022/10/09 01:55:48;;;;;;;30.00;10.40;;;;;;;3.37;100.00;102240.28;1969798;28;20065;-71
2022/10/09 01:56:50;;;;;;;21.80;9.73;;;;;;;3.39;100.00;102236.03;1969908;28;20034;-71
2022/10/09 01:58:07;;;;;;;22.85;10.02;;;;;;;3.42;100.00;102239.50;1969794;28;20080;-71
2022/10/09 01:59:15;;;;;;;27.15;11.73;;;;;;;3.43;100.00;102240.38;1969186;28;20527;-71
2022/10/09 02:00:14;;;;;;;22.38;11.50;;;;;;;3.42;100.00;102234.34;1968010;28;20052;-71
2022/10/09 02:01:30;;;;;;;24.27;11.63;;;;;;;3.43;100.00;102241.25;1968636;28;20074;-71
2022/10/09 02:02:28;;;;;;;21.98;10.63;;;;;;;3.39;100.00;102236.03;1963623;28;20052;-71
2022/10/09 02:03:29;;;;;;;24.98;11.23;;;;;;;3.39;100.00;102230.88;1962401;28;20636;-71
2022/10/09 02:04:28;;;;;;;;;;;;;;;3.39;100.00;102229.13;1962673;28;20150;-72
2022/10/09 02:05:29;;;;;;;24.27;10.00;;;;;;;3.37;100.00;102227.41;1963148;28;19916;-70
2022/10/09 02:06:30;;;;;;;29.92;10.52;;;;;;;3.39;100.00;102228.28;1969647;28;20056;-70
2022/10/09 02:07:30;;;;;;;;;;;;;;;3.41;100.00;102222.28;1970225;28;20036;-70
2022/10/09 02:08:32;;;;;;;21.13;10.43;;;;;;;3.37;100.00;102224.81;1977001;28;20425;-71
2022/10/09 02:09:32;;;;;;;29.92;11.80;;;;;;;3.35;100.00;102224.78;1969099;28;20196;-71
2022/10/09 02:10:34;;;;;;;37.13;12.93;;;;;;;3.36;100.00;102218.81;1966952;28;20043;-71
2022/10/09 02:11:34;;;;;;;23.38;11.30;;;;;;;3.33;100.00;102227.38;1966168;28;20412;-71
2022/10/09 02:12:39;;;;;;;29.90;11.65;;;;;;;3.33;100.00;102224.81;1963501;28;20060;-71
2022/10/09 02:13:37;;;;;;;30.25;11.90;;;;;;;3.33;100.00;102219.66;1962005;28;20494;-71
2022/10/09 02:14:35;;;;;;;25.27;11.85;;;;;;;3.33;100.00;102222.22;1962416;28;20052;-71
2022/10/09 02:16:12;;;;;;;29.00;11.73;;;;;;;3.31;100.00;102226.50;1964322;28;20044;-71
2022/10/09 02:17:18;;;;;;;25.73;11.13;;;;;;;3.26;100.00;102223.00;1959013;28;20067;-71
2022/10/09 02:18:29;;;;;;;25.00;12.48;;;;;;;3.32;100.00;102228.22;1962060;28;20054;-70
2022/10/09 02:19:39;;;;;;;32.25;12.63;;;;;;;3.31;100.00;102218.75;1960291;28;20034;-70
2022/10/09 02:20:43;;;;;;;;;;;;;;;3.32;100.00;102219.63;1971424;28;20049;-71
2022/10/09 02:21:56;;;;;;;25.40;11.02;;;;;;;3.33;100.00;102217.06;1976648;28;19927;-71
2022/10/09 02:22:56;;;;;;;28.58;12.90;;;;;;;3.29;100.00;102217.84;1964809;28;20547;-70
2022/10/09 02:23:57;;;;;;;37.72;14.02;;;;;;;3.25;100.00;102210.94;1969360;28;20046;-70
2022/10/09 02:24:58;;;;;;;32.78;13.82;;;;;;;3.24;100.00;102210.94;1969240;28;20046;-71
2022/10/09 02:25:57;;;;;;;43.65;14.27;;;;;;;3.22;100.00;102216.09;1969376;28;20434;-71
2022/10/09 02:26:57;;;;;;;35.70;15.27;;;;;;;3.20;100.00;102215.19;1969156;28;20037;-72
2022/10/09 02:27:54;;;;;;;33.85;13.98;;;;;;;3.22;100.00;102216.09;1969547;28;20030;-71
2022/10/09 02:28:53;;;;;;;29.10;14.38;;;;;;;3.24;100.00;102219.53;1969560;28;20049;-71
2022/10/09 02:29:52;;;;;;;39.45;14.43;;;;;;;3.22;100.00;102210.94;1969035;28;20044;-71
2022/10/09 02:31:21;;;;;;;33.65;14.32;;;;;;;3.20;100.00;102221.22;1968833;28;20034;-71
2022/10/09 02:32:19;;;;;;;28.02;12.32;;;;;;;3.15;100.00;102211.69;1969974;28;20583;-63
2022/10/09 02:33:17;;;;;;;32.28;14.00;;;;;;;3.17;100.00;102212.56;1969342;28;20042;-65
2022/10/09 02:34:19;;;;;;;32.28;13.88;;;;;;;3.18;100.00;102206.59;1969365;28;20117;-65
2022/10/09 02:35:17;;;;;;;27.65;13.80;;;;;;;3.14;100.00;102208.25;1969848;28;20074;-64
2022/10/09 02:36:14;;;;;;;28.63;15.23;;;;;;;3.13;100.00;102209.09;1969878;28;20045;-63
2022/10/09 02:37:12;;;;;;;30.17;14.90;;;;;;;3.17;100.00;102204.81;1969690;28;20501;-64
2022/10/09 02:38:09;;;;;;;34.58;14.63;;;;;;;3.17;100.00;102208.28;1968880;28;20409;-64
2022/10/09 02:39:07;;;;;;;33.80;15.25;;;;;;;3.19;100.00;102210.88;1968774;28;20043;-65
2022/10/09 02:40:05;;;;;;;37.33;15.35;;;;;;;3.21;100.00;102209.16;1976078;28;20044;-63
2022/10/09 02:41:03;;;;;;;31.33;13.73;;;;;;;3.22;100.00;102204.03;1970229;28;20032;-65
2022/10/09 02:42:00;;;;;;;35.45;14.15;;;;;;;3.23;100.00;102207.47;1968892;28;20080;-64
2022/10/09 02:42:58;;;;;;;37.17;15.25;;;;;;;3.21;100.00;102211.75;1969153;28;20037;-64
2022/10/09 02:43:55;;;;;;;30.00;14.98;;;;;;;3.19;100.00;102205.72;1969323;28;20030;-64
2022/10/09 02:44:53;;;;;;;28.83;13.65;;;;;;;3.18;100.00;102209.16;1969007;28;20044;-70
2022/10/09 02:45:50;;;;;;;34.40;14.90;;;;;;;3.15;100.00;102207.38;1961085;28;20092;-70
2022/10/09 02:46:47;;;;;;;33.42;15.15;;;;;;;3.14;100.00;102205.66;1968125;28;20075;-70
2022/10/09 02:47:45;;;;;;;31.90;14.52;;;;;;;3.19;100.00;102210.88;1969451;28;20500;-70
2022/10/09 02:48:42;;;;;;;31.73;15.13;;;;;;;3.17;100.00;102210.00;1969582;28;20052;-70
2022/10/09 02:49:40;;;;;;;34.80;15.23;;;;;;;3.18;100.00;102206.59;1967135;28;20042;-70
2022/10/09 02:50:37;;;;;;;39.45;15.43;;;;;;;3.20;100.00;102210.03;1969386;28;20451;-70
2022/10/09 02:51:35;;;;;;;31.85;13.80;;;;;;;3.20;100.00;102207.44;1969576;28;20495;-70
2022/10/09 02:52:32;;;;;;;34.22;14.23;;;;;;;3.19;100.00;102203.16;1969547;28;20120;-70
2022/10/09 02:53:30;;;;;;;30.70;14.00;;;;;;;3.15;100.00;102204.81;1969558;28;20080;-70
2022/10/09 02:54:28;;;;;;;37.58;14.60;;;;;;;3.13;100.00;102210.81;1969496;28;20040;-70
2022/10/09 02:55:25;;;;;;;33.17;14.07;;;;;;;3.12;100.00;102201.34;1968852;28;20077;-70
2022/10/09 02:56:22;;;;;;;40.45;14.25;;;;;;;3.14;100.00;102207.38;1968983;28;20042;-70
2022/10/09 02:57:20;;;;;;;31.27;13.18;;;;;;;3.14;100.00;102204.78;1969525;28;20050;-70
2022/10/09 02:58:17;;;;;;;29.45;13.27;;;;;;;3.14;100.00;102207.38;1969381;28;20044;-70
2022/10/09 02:59:15;;;;;;;32.70;12.85;;;;;;;3.15;100.00;102201.38;1969550;28;20504;-70
2022/10/09 03:00:13;;;;;;;29.40;13.07;;;;;;;3.13;100.00;102203.94;1968803;28;20113;-70
2022/10/09 03:01:11;;;;;;;37.58;14.32;;;;;;;3.09;100.00;102210.75;1969504;28;20575;-70
2022/10/09 03:02:08;;;;;;;30.80;13.88;;;;;;;3.08;100.00;102201.31;1971007;28;20517;-69
2022/10/09 03:03:06;;;;;;;33.70;13.45;;;;;;;3.12;100.00;102203.94;1971099;28;20055;-70
2022/10/09 03:04:03;;;;;;;28.67;12.75;;;;;;;3.14;100.00;102207.38;1971035;28;20488;-70
2022/10/09 03:05:01;;;;;;;28.75;12.48;;;;;;;3.14;100.00;102207.38;1970940;28;20047;-70
2022/10/09 03:06:08;;;;;;;29.67;13.48;;;;;;;3.14;100.00;102204.78;1971104;28;20192;-70
2022/10/09 03:07:05;;;;;;;29.27;13.48;;;;;;;3.09;100.00;102203.03;1970995;28;20121;-70
2022/10/09 03:08:03;;;;;;;35.20;13.63;;;;;;;3.06;100.00;102197.88;1971019;28;20051;-70
2022/10/09 03:09:00;;;;;;;33.75;12.63;;;;;;;3.04;100.00;102190.94;1970896;28;20088;-69
2022/10/09 03:09:57;;;;;;;28.25;13.35;;;;;;;3.02;100.00;102198.69;1971188;28;20561;-69
2022/10/09 03:10:56;;;;;;;30.67;13.57;;;;;;;3.00;100.00;102195.19;1977796;28;20068;-70
2022/10/09 03:11:53;;;;;;;38.75;14.52;;;;;;;2.98;100.00;102196.91;1978246;28;20042;-70
2022/10/09 03:12:50;;;;;;;27.50;13.60;;;;;;;3.03;100.00;102196.94;1971661;28;20075;-69
2022/10/09 03:13:48;;;;;;;34.53;14.65;;;;;;;3.05;100.00;102203.84;1971059;28;20053;-71
2022/10/09 03:14:45;;;;;;;37.97;14.45;;;;;;;3.05;100.00;102192.69;1970951;28;20486;-70
2022/10/09 03:15:43;;;;;;;28.60;13.93;;;;;;;3.06;100.00;102197.88;1971117;28;20046;-70
2022/10/09 03:16:40;;;;;;;29.27;14.63;;;;;;;3.06;100.00;102195.28;1971068;28;20115;-70
2022/10/09 03:17:38;;;;;;;35.80;14.95;;;;;;;3.07;100.00;102197.00;1970982;28;20133;-70
2022/10/09 03:18:36;;;;;;;38.45;15.32;;;;;;;3.05;100.00;102193.53;1970996;28;20058;-71
2022/10/09 03:19:34;;;;;;;40.17;16.08;;;;;;;3.03;100.00;102191.78;1968571;28;20048;-69
2022/10/09 03:20:31;;;;;;;34.58;15.52;;;;;;;3.04;100.00;102198.66;1970992;28;20059;-69
2022/10/09 03:21:28;;;;;;;28.40;14.20;;;;;;;3.03;100.00;102194.38;1970838;28;20042;-70
2022/10/09 03:22:26;;;;;;;31.95;15.25;;;;;;;3.07;100.00;102197.00;1970854;28;20036;-70
2022/10/09 03:23:24;;;;;;;35.95;15.68;;;;;;;3.07;100.00;102196.13;1970770;28;20046;-69
2022/10/09 03:24:21;;;;;;;34.00;16.70;;;;;;;3.07;100.00;102197.00;1970867;28;20048;-70
2022/10/09 03:25:19;;;;;;;36.85;16.65;;;;;;;3.06;100.00;102194.41;1970290;28;20052;-70
2022/10/09 03:26:20;;;;;;;42.92;16.60;;;;;;;3.03;100.00;102190.09;1970392;28;20088;-71
2022/10/09 03:27:18;;;;;;;36.58;16.30;;;;;;;3.03;100.00;102184.03;1970838;28;20073;-71
2022/10/09 03:28:15;;;;;;;39.78;16.98;;;;;;;3.00;100.00;102190.03;1970876;28;20488;-69
2022/10/09 03:29:12;;;;;;;36.33;16.92;;;;;;;3.02;100.00;102185.78;1970860;28;20048;-69
2022/10/09 03:30:10;;;;;;;40.83;17.17;;;;;;;3.01;100.00;102178.88;1970893;28;20058;-69
2022/10/09 03:31:09;;;;;;;37.65;16.80;;;;;;;3.03;100.00;102182.34;1970835;28;20056;-70
2022/10/09 03:32:06;;;;;;;40.85;17.42;;;;;;;3.06;100.00;102190.13;1970811;28;20508;-70
2022/10/09 03:33:04;;;;;;;42.95;17.63;;;;;;;3.03;100.00;102190.09;1970911;28;20044;-70
2022/10/09 03:34:01;;;;;;;38.80;17.20;;;;;;;3.03;100.00;102184.94;1970848;28;20060;-70
2022/10/09 03:34:58;;;;;;;38.17;16.83;;;;;;;3.03;100.00;102190.09;1970779;28;20137;-70
2022/10/09 03:35:56;;;;;;;41.67;17.25;;;;;;;3.03;100.00;102191.78;1970781;28;20121;-70
2022/10/09 03:36:53;;;;;;;37.95;16.23;;;;;;;3.00;100.00;102195.19;1970822;28;20193;-70
2022/10/09 03:37:50;;;;;;;42.05;16.55;;;;;;;2.99;100.00;102188.31;1970752;28;20046;-70
2022/10/09 03:38:48;;;;;;;33.28;14.77;;;;;;;2.97;100.00;102182.25;1970792;28;20123;-70
2022/10/09 03:39:45;;;;;;;34.08;15.52;;;;;;;2.94;100.00;102189.97;1970699;28;20034;-70
2022/10/09 03:40:43;;;;;;;38.03;15.68;;;;;;;2.90;100.00;102178.75;1970798;28;20393;-70
2022/10/09 03:41:41;;;;;;;33.17;15.02;;;;;;;2.88;100.00;102179.59;1969733;28;20064;-70
2022/10/09 03:42:38;;;;;;;35.40;15.18;;;;;;;2.86;100.00;102177.00;1970209;28;20411;-70
2022/10/09 03:43:36;;;;;;;31.73;14.75;;;;;;;2.85;100.00;102184.72;1970724;28;20048;-70
2022/10/09 03:44:33;;;;;;;31.95;14.82;;;;;;;2.85;100.00;102184.72;1970142;28;20112;-70
2022/10/09 03:45:30;;;;;;;32.67;14.73;;;;;;;2.83;100.00;102183.00;1970806;28;20561;-70
2022/10/09 03:46:28;;;;;;;35.28;15.27;;;;;;;2.81;100.00;102179.50;1970623;28;20049;-70
2022/10/09 03:47:25;;;;;;;37.63;15.77;;;;;;;2.78;100.00;102184.66;1970716;28;20550;-70
2022/10/09 03:48:24;;;;;;;33.10;14.30;;;;;;;2.75;100.00;102179.47;1970679;28;20042;-70
2022/10/09 03:49:21;;;;;;;33.45;15.05;;;;;;;2.74;100.00;102177.69;1968407;28;20044;-70
2022/10/09 03:50:19;;;;;;;38.05;15.68;;;;;;;2.73;100.00;102180.28;1970649;28;20056;-70
2022/10/09 03:51:16;;;;;;;32.60;14.88;;;;;;;2.73;100.00;102181.13;1970663;28;20214;-70
2022/10/09 03:52:14;;;;;;;41.30;15.90;;;;;;;2.74;100.00;102174.28;1970069;28;20140;-70
2022/10/09 03:53:12;;;;;;;32.03;15.43;;;;;;;2.70;100.00;102179.41;1970223;28;20091;-70
2022/10/09 03:54:09;;;;;;;36.28;15.75;;;;;;;2.69;100.00;102174.22;1969244;28;20389;-70
2022/10/09 03:55:07;;;;;;;30.73;15.35;;;;;;;2.67;100.00;102173.34;1970150;28;20052;-70
2022/10/09 03:56:05;;;;;;;32.92;15.27;;;;;;;2.69;100.00;102169.06;1970638;28;20040;-70
2022/10/09 03:57:03;;;;;;;36.00;16.15;;;;;;;2.73;100.00;102175.13;1970568;28;20463;-70
2022/10/09 03:58:00;;;;;;;37.53;15.80;;;;;;;2.74;100.00;102182.84;1970700;28;20405;-71
2022/10/09 03:58:57;;;;;;;32.15;16.10;;;;;;;2.71;100.00;102175.13;1970615;28;20492;-70
2022/10/09 03:59:55;;;;;;;30.55;14.90;;;;;;;2.68;100.00;102178.53;1970597;28;20040;-70
2022/10/09 04:00:53;;;;;;;31.52;15.00;;;;;;;2.68;100.00;102180.22;1970511;28;20284;-70
2022/10/09 04:01:50;;;;;;;33.00;16.08;;;;;;;2.67;100.00;102186.25;1970651;28;20377;-70
2022/10/09 04:02:48;;;;;;;37.88;15.57;;;;;;;2.67;100.00;102191.38;1970569;28;20067;-70
2022/10/09 04:03:45;;;;;;;39.30;15.30;;;;;;;2.64;100.00;102188.78;1970660;28;20525;-70
2022/10/09 04:04:43;;;;;;;32.72;14.52;;;;;;;2.61;100.00;102189.59;1970497;28;20046;-69
2022/10/09 04:05:40;;;;;;;28.27;14.05;;;;;;;2.59;100.00;102187.84;1970582;28;20128;-69
2022/10/09 04:06:37;;;;;;;33.08;14.93;;;;;;;2.59;100.00;102193.00;1970637;28;20044;-70
2022/10/09 04:07:35;;;;;;;36.65;15.02;;;;;;;2.59;100.00;102198.16;1970532;28;20051;-69
2022/10/09 04:08:33;;;;;;;36.30;14.85;;;;;;;2.59;100.00;102198.16;1970524;28;20485;-70
2022/10/09 04:09:31;;;;;;;38.38;15.23;;;;;;;2.57;100.00;102191.25;1970504;28;20080;-70
2022/10/09 04:10:28;;;;;;;33.13;14.80;;;;;;;2.57;100.00;102191.25;1970597;28;20036;-69
2022/10/09 04:11:26;;;;;;;35.90;14.90;;;;;;;2.59;100.00;102187.84;1970381;28;20046;-69
2022/10/09 04:12:23;;;;;;;27.98;14.13;;;;;;;2.58;100.00;102186.97;1970017;28;20040;-69
2022/10/09 04:13:20;;;;;;;33.08;15.35;;;;;;;2.55;100.00;102195.53;1969959;28;20493;-69
2022/10/09 04:14:18;;;;;;;37.35;14.90;;;;;;;2.53;100.00;102192.06;1977541;28;20043;-69
2022/10/09 04:15:15;;;;;;;34.25;15.32;;;;;;;2.50;100.00;102186.88;1977557;28;20046;-69
2022/10/09 04:16:13;;;;;;;33.90;14.65;;;;;;;2.50;100.00;102191.19;1977740;28;20056;-69
2022/10/09 04:17:10;;;;;;;30.80;14.95;;;;;;;2.47;100.00;102194.59;1971358;28;20048;-69
2022/10/09 04:18:08;;;;;;;34.08;14.98;;;;;;;2.46;100.00;102192.81;1969871;28;20059;-68
2022/10/09 04:19:05;;;;;;;33.25;15.50;;;;;;;2.46;100.00;102191.97;1969242;28;20471;-69
2022/10/09 04:20:03;;;;;;;37.03;15.48;;;;;;;2.46;100.00;102187.66;1968928;28;20168;-70
2022/10/09 04:21:01;;;;;;;34.13;15.20;;;;;;;2.46;100.00;102192.81;1970528;28;20045;-70
2022/10/09 04:21:58;;;;;;;38.88;15.93;;;;;;;2.44;100.00;102190.22;1970490;28;20036;-70
2022/10/09 04:22:55;;;;;;;32.22;15.07;;;;;;;2.43;100.00;102188.50;1970518;28;20036;-69
2022/10/09 04:23:53;;;;;;;32.90;14.98;;;;;;;2.39;100.00;102191.88;1977278;28;20048;-69
2022/10/09 04:24:50;;;;;;;38.88;15.48;;;;;;;2.39;100.00;102185.88;1977717;28;20557;-69
2022/10/09 04:25:53;;;;;;;36.00;15.80;;;;;;;2.38;100.00;102181.56;1971152;28;20471;-69
2022/10/09 04:26:51;;;;;;;41.85;15.18;;;;;;;2.39;100.00;102185.88;1970457;28;20038;-68
2022/10/09 04:27:48;;;;;;;29.70;15.32;;;;;;;2.37;100.00;102187.56;1970343;28;20507;-68
2022/10/09 04:28:45;;;;;;;33.70;15.25;;;;;;;2.35;100.00;102186.66;1970473;28;20064;-69
2022/10/09 04:29:43;;;;;;;31.45;15.07;;;;;;;2.35;100.00;102181.50;1970411;28;20120;-69
2022/10/09 04:30:40;;;;;;;31.67;15.52;;;;;;;2.37;100.00;102193.59;1970331;28;20051;-68
2022/10/09 04:31:37;;;;;;;37.85;15.77;;;;;;;2.40;100.00;102185.03;1970522;28;20409;-70
2022/10/09 04:32:35;;;;;;;33.85;16.10;;;;;;;2.42;100.00;102183.31;1970374;28;20495;-69
2022/10/09 04:33:32;;;;;;;39.65;16.38;;;;;;;2.40;100.00;102179.88;1970412;28;20064;-69
2022/10/09 04:34:30;;;;;;;41.95;15.93;;;;;;;2.38;100.00;102178.97;1970337;28;20450;-70
2022/10/09 04:35:27;;;;;;;34.13;15.27;;;;;;;2.36;100.00;102175.53;1970359;28;20062;-69
2022/10/09 04:36:24;;;;;;;35.70;15.85;;;;;;;2.35;100.00;102178.94;1977453;28;20037;-69
2022/10/09 04:37:22;;;;;;;36.05;15.75;;;;;;;2.34;100.00;102183.22;1977613;28;20628;-69
2022/10/09 04:38:20;;;;;;;41.13;16.02;;;;;;;2.33;100.00;102175.47;1971140;28;20127;-69
2022/10/09 04:39:18;;;;;;;34.33;16.08;;;;;;;2.34;100.00;102178.09;1970367;28;20406;-69